sensor_id;sensor_type;location;lat;lon;timestamp;temperature;humidity
18581;DHT22;9420;50.876;7.012;2023-07-24T00:02:16;18.14;91.13
18581;DHT22;9420;50.876;7.012;2023-07-24T00:04:42;18.16;90.45
18581;DHT22;9420;50.876;7.012;2023-07-24T00:07:10;18.23;90.05
18581;DHT22;9420;50.876;7.012;2023-07-24T00:09:37;18.21;90.08
18581;DHT22;9420;50.876;7.012;2023-07-24T00:12:04;18.23;89.93
18581;DHT22;9420;50.876;7.012;2023-07-24T00:14:31;18.17;90.16
18581;DHT22;9420;50.876;7.012;2023-07-24T00:16:57;18.14;90.18
18581;DHT22;9420;50.876;7.012;2023-07-24T00:19:24;18.20;89.71
18581;DHT22;9420;50.876;7.012;2023-07-24T00:21:51;18.30;89.24
18581;DHT22;9420;50.876;7.012;2023-07-24T00:24:19;18.26;89.77
18581;DHT22;9420;50.876;7.012;2023-07-24T00:26:45;18.33;88.89
18581;DHT22;9420;50.876;7.012;2023-07-24T00:29:12;18.36;88.76
18581;DHT22;9420;50.876;7.012;2023-07-24T00:31:38;18.21;90.28
18581;DHT22;9420;50.876;7.012;2023-07-24T00:34:05;18.29;88.68
18581;DHT22;9420;50.876;7.012;2023-07-24T00:36:31;18.14;89.74
18581;DHT22;9420;50.876;7.012;2023-07-24T00:38:58;18.06;89.89
18581;DHT22;9420;50.876;7.012;2023-07-24T00:41:26;18.06;90.05
18581;DHT22;9420;50.876;7.012;2023-07-24T00:43:52;18.06;89.70
18581;DHT22;9420;50.876;7.012;2023-07-24T00:46:19;17.97;89.98
18581;DHT22;9420;50.876;7.012;2023-07-24T00:48:46;17.83;90.96
18581;DHT22;9420;50.876;7.012;2023-07-24T00:51:13;17.78;91.01
18581;DHT22;9420;50.876;7.012;2023-07-24T00:53:40;17.97;89.69
18581;DHT22;9420;50.876;7.012;2023-07-24T00:56:06;17.89;90.01
18581;DHT22;9420;50.876;7.012;2023-07-24T00:58:36;17.82;90.26
18581;DHT22;9420;50.876;7.012;2023-07-24T01:01:03;17.75;90.45
18581;DHT22;9420;50.876;7.012;2023-07-24T01:03:33;17.82;89.87
18581;DHT22;9420;50.876;7.012;2023-07-24T01:06:01;17.86;89.65
18581;DHT22;9420;50.876;7.012;2023-07-24T01:08:28;17.85;89.55
18581;DHT22;9420;50.876;7.012;2023-07-24T01:10:57;17.92;89.19
18581;DHT22;9420;50.876;7.012;2023-07-24T01:13:25;17.78;89.82
18581;DHT22;9420;50.876;7.012;2023-07-24T01:16:00;17.78;89.58
18581;DHT22;9420;50.876;7.012;2023-07-24T01:18:30;17.72;90.04
18581;DHT22;9420;50.876;7.012;2023-07-24T01:20:58;17.72;89.77
18581;DHT22;9420;50.876;7.012;2023-07-24T01:23:37;17.65;90.26
18581;DHT22;9420;50.876;7.012;2023-07-24T01:26:06;17.65;90.28
18581;DHT22;9420;50.876;7.012;2023-07-24T01:28:34;17.62;90.26
18581;DHT22;9420;50.876;7.012;2023-07-24T01:31:01;17.41;91.57
18581;DHT22;9420;50.876;7.012;2023-07-24T01:33:27;17.44;91.57
18581;DHT22;9420;50.876;7.012;2023-07-24T01:35:57;17.62;90.45
18581;DHT22;9420;50.876;7.012;2023-07-24T01:38:24;17.63;90.57
18581;DHT22;9420;50.876;7.012;2023-07-24T01:40:54;17.85;88.84
18581;DHT22;9420;50.876;7.012;2023-07-24T01:43:22;17.93;88.64
18581;DHT22;9420;50.876;7.012;2023-07-24T01:45:49;17.96;88.92
18581;DHT22;9420;50.876;7.012;2023-07-24T01:48:15;17.96;89.11
18581;DHT22;9420;50.876;7.012;2023-07-24T01:50:42;17.92;90.07
18581;DHT22;9420;50.876;7.012;2023-07-24T01:53:08;17.79;92.07
18581;DHT22;9420;50.876;7.012;2023-07-24T01:55:35;17.72;92.43
18581;DHT22;9420;50.876;7.012;2023-07-24T01:58:02;17.72;92.80
18581;DHT22;9420;50.876;7.012;2023-07-24T02:00:30;17.75;92.01
18581;DHT22;9420;50.876;7.012;2023-07-24T02:02:57;17.76;93.05
18581;DHT22;9420;50.876;7.012;2023-07-24T02:05:24;17.78;91.94
18581;DHT22;9420;50.876;7.012;2023-07-24T02:07:50;17.78;93.59
18581;DHT22;9420;50.876;7.012;2023-07-24T02:10:17;17.78;92.36
18581;DHT22;9420;50.876;7.012;2023-07-24T02:12:44;17.73;92.78
18581;DHT22;9420;50.876;7.012;2023-07-24T02:15:10;17.79;91.69
18581;DHT22;9420;50.876;7.012;2023-07-24T02:17:38;17.87;91.23
18581;DHT22;9420;50.876;7.012;2023-07-24T02:20:06;17.92;91.33
18581;DHT22;9420;50.876;7.012;2023-07-24T02:22:33;17.94;91.33
18581;DHT22;9420;50.876;7.012;2023-07-24T02:25:00;17.89;91.82
18581;DHT22;9420;50.876;7.012;2023-07-24T02:27:28;17.83;91.83
18581;DHT22;9420;50.876;7.012;2023-07-24T02:29:56;17.86;90.53
18581;DHT22;9420;50.876;7.012;2023-07-24T02:32:23;17.76;91.84
18581;DHT22;9420;50.876;7.012;2023-07-24T02:34:51;17.72;92.00
18581;DHT22;9420;50.876;7.012;2023-07-24T02:37:18;17.68;93.27
18581;DHT22;9420;50.876;7.012;2023-07-24T02:39:45;17.75;92.42
18581;DHT22;9420;50.876;7.012;2023-07-24T02:42:12;17.72;93.13
18581;DHT22;9420;50.876;7.012;2023-07-24T02:44:39;17.81;91.95
18581;DHT22;9420;50.876;7.012;2023-07-24T02:47:06;17.82;92.86
18581;DHT22;9420;50.876;7.012;2023-07-24T02:49:32;17.75;93.45
18581;DHT22;9420;50.876;7.012;2023-07-24T02:52:00;17.73;93.47
18581;DHT22;9420;50.876;7.012;2023-07-24T02:54:27;17.66;94.95
18581;DHT22;9420;50.876;7.012;2023-07-24T02:56:54;17.71;94.41
18581;DHT22;9420;50.876;7.012;2023-07-24T02:59:20;17.66;94.71
18581;DHT22;9420;50.876;7.012;2023-07-24T03:01:47;17.66;94.60
18581;DHT22;9420;50.876;7.012;2023-07-24T03:04:13;17.71;94.18
18581;DHT22;9420;50.876;7.012;2023-07-24T03:06:40;17.56;95.17
18581;DHT22;9420;50.876;7.012;2023-07-24T03:09:08;17.51;94.22
18581;DHT22;9420;50.876;7.012;2023-07-24T03:11:34;17.58;95.03
18581;DHT22;9420;50.876;7.012;2023-07-24T03:14:01;17.58;93.38
18581;DHT22;9420;50.876;7.012;2023-07-24T03:16:28;17.63;92.93
18581;DHT22;9420;50.876;7.012;2023-07-24T03:18:54;17.59;93.48
18581;DHT22;9420;50.876;7.012;2023-07-24T03:21:22;17.46;94.48
18581;DHT22;9420;50.876;7.012;2023-07-24T03:23:49;17.51;93.78
18581;DHT22;9420;50.876;7.012;2023-07-24T03:26:17;17.49;93.28
18581;DHT22;9420;50.876;7.012;2023-07-24T03:28:44;17.44;93.28
18581;DHT22;9420;50.876;7.012;2023-07-24T03:31:10;17.48;92.64
18581;DHT22;9420;50.876;7.012;2023-07-24T03:33:37;17.46;92.24
18581;DHT22;9420;50.876;7.012;2023-07-24T03:36:04;17.35;92.89
18581;DHT22;9420;50.876;7.012;2023-07-24T03:38:31;17.34;92.55
18581;DHT22;9420;50.876;7.012;2023-07-24T03:40:57;17.41;92.48
18581;DHT22;9420;50.876;7.012;2023-07-24T03:43:25;17.35;92.64
18581;DHT22;9420;50.876;7.012;2023-07-24T03:45:52;17.31;92.37
18581;DHT22;9420;50.876;7.012;2023-07-24T03:48:18;17.25;93.94
18581;DHT22;9420;50.876;7.012;2023-07-24T03:50:45;17.30;92.64
18581;DHT22;9420;50.876;7.012;2023-07-24T03:53:12;17.41;92.24
18581;DHT22;9420;50.876;7.012;2023-07-24T03:55:38;17.66;90.27
18581;DHT22;9420;50.876;7.012;2023-07-24T03:58:05;17.65;89.91
18581;DHT22;9420;50.876;7.012;2023-07-24T04:00:33;17.66;91.04
18581;DHT22;9420;50.876;7.012;2023-07-24T04:03:00;17.58;93.22
18581;DHT22;9420;50.876;7.012;2023-07-24T04:05:26;17.66;90.60
18581;DHT22;9420;50.876;7.012;2023-07-24T04:07:54;17.73;89.77
18581;DHT22;9420;50.876;7.012;2023-07-24T04:10:21;17.90;88.76
18581;DHT22;9420;50.876;7.012;2023-07-24T04:12:47;17.85;89.29
18581;DHT22;9420;50.876;7.012;2023-07-24T04:15:14;17.90;88.45
18581;DHT22;9420;50.876;7.012;2023-07-24T04:17:42;17.99;87.33
18581;DHT22;9420;50.876;7.012;2023-07-24T04:20:09;17.92;88.50
18581;DHT22;9420;50.876;7.012;2023-07-24T04:22:36;17.97;89.14
18581;DHT22;9420;50.876;7.012;2023-07-24T04:25:03;17.86;89.67
18581;DHT22;9420;50.876;7.012;2023-07-24T04:27:30;17.97;88.55
18581;DHT22;9420;50.876;7.012;2023-07-24T04:29:56;17.97;88.32
18581;DHT22;9420;50.876;7.012;2023-07-24T04:32:23;18.07;87.09
18581;DHT22;9420;50.876;7.012;2023-07-24T04:34:51;18.11;87.49
18581;DHT22;9420;50.876;7.012;2023-07-24T04:37:17;18.07;87.52
18581;DHT22;9420;50.876;7.012;2023-07-24T04:39:44;18.13;87.82
18581;DHT22;9420;50.876;7.012;2023-07-24T04:42:10;18.09;87.39
18581;DHT22;9420;50.876;7.012;2023-07-24T04:44:37;18.18;86.02
18581;DHT22;9420;50.876;7.012;2023-07-24T04:47:04;18.27;86.41
18581;DHT22;9420;50.876;7.012;2023-07-24T04:49:31;18.27;86.26
18581;DHT22;9420;50.876;7.012;2023-07-24T04:51:59;18.43;84.66
18581;DHT22;9420;50.876;7.012;2023-07-24T04:54:26;18.30;85.29
18581;DHT22;9420;50.876;7.012;2023-07-24T04:56:52;18.26;86.23
18581;DHT22;9420;50.876;7.012;2023-07-24T04:59:19;18.23;85.27
18581;DHT22;9420;50.876;7.012;2023-07-24T05:01:49;18.21;84.75
18581;DHT22;9420;50.876;7.012;2023-07-24T05:04:17;18.44;82.49
18581;DHT22;9420;50.876;7.012;2023-07-24T05:06:43;18.41;83.91
18581;DHT22;9420;50.876;7.012;2023-07-24T05:09:13;18.41;83.97
18581;DHT22;9420;50.876;7.012;2023-07-24T05:11:40;18.58;82.92
18581;DHT22;9420;50.876;7.012;2023-07-24T05:14:08;18.62;84.35
18581;DHT22;9420;50.876;7.012;2023-07-24T05:16:35;18.61;85.75
18581;DHT22;9420;50.876;7.012;2023-07-24T05:19:01;18.75;83.61
18581;DHT22;9420;50.876;7.012;2023-07-24T05:21:29;18.82;83.15
18581;DHT22;9420;50.876;7.012;2023-07-24T05:23:56;18.87;83.37
18581;DHT22;9420;50.876;7.012;2023-07-24T05:26:24;18.89;81.40
18581;DHT22;9420;50.876;7.012;2023-07-24T05:28:51;19.05;81.93
18581;DHT22;9420;50.876;7.012;2023-07-24T05:31:18;19.09;82.99
18581;DHT22;9420;50.876;7.012;2023-07-24T05:33:45;19.33;81.64
18581;DHT22;9420;50.876;7.012;2023-07-24T05:36:15;19.54;80.51
18581;DHT22;9420;50.876;7.012;2023-07-24T05:38:44;19.63;80.59
18581;DHT22;9420;50.876;7.012;2023-07-24T05:41:12;19.74;80.47
18581;DHT22;9420;50.876;7.012;2023-07-24T05:43:42;19.74;79.61
18581;DHT22;9420;50.876;7.012;2023-07-24T05:46:10;19.77;78.60
18581;DHT22;9420;50.876;7.012;2023-07-24T05:48:41;19.78;78.88
18581;DHT22;9420;50.876;7.012;2023-07-24T05:51:10;19.63;79.89
18581;DHT22;9420;50.876;7.012;2023-07-24T05:53:37;19.68;79.61
18581;DHT22;9420;50.876;7.012;2023-07-24T05:56:03;19.68;80.01
18581;DHT22;9420;50.876;7.012;2023-07-24T05:58:32;19.70;80.49
18581;DHT22;9420;50.876;7.012;2023-07-24T06:01:01;19.70;79.47
18581;DHT22;9420;50.876;7.012;2023-07-24T06:03:28;19.84;78.50
18581;DHT22;9420;50.876;7.012;2023-07-24T06:05:55;19.81;80.09
18581;DHT22;9420;50.876;7.012;2023-07-24T06:08:25;19.85;77.96
18581;DHT22;9420;50.876;7.012;2023-07-24T06:10:51;19.99;78.65
18581;DHT22;9420;50.876;7.012;2023-07-24T06:13:18;19.95;78.42
18581;DHT22;9420;50.876;7.012;2023-07-24T06:15:47;19.99;78.03
18581;DHT22;9420;50.876;7.012;2023-07-24T06:18:17;20.01;77.45
18581;DHT22;9420;50.876;7.012;2023-07-24T06:20:43;20.05;77.53
18581;DHT22;9420;50.876;7.012;2023-07-24T06:23:10;20.19;76.84
18581;DHT22;9420;50.876;7.012;2023-07-24T06:25:39;20.23;76.93
18581;DHT22;9420;50.876;7.012;2023-07-24T06:28:06;20.18;76.66
18581;DHT22;9420;50.876;7.012;2023-07-24T06:30:35;20.19;76.53
18581;DHT22;9420;50.876;7.012;2023-07-24T06:33:02;20.16;76.76
18581;DHT22;9420;50.876;7.012;2023-07-24T06:35:34;20.05;78.09
18581;DHT22;9420;50.876;7.012;2023-07-24T06:38:01;20.11;77.73
18581;DHT22;9420;50.876;7.012;2023-07-24T06:40:30;20.14;77.71
18581;DHT22;9420;50.876;7.012;2023-07-24T06:43:00;20.15;77.41
18581;DHT22;9420;50.876;7.012;2023-07-24T06:45:29;20.18;76.60
18581;DHT22;9420;50.876;7.012;2023-07-24T06:47:56;20.12;76.31
18581;DHT22;9420;50.876;7.012;2023-07-24T06:50:22;20.11;76.47
18581;DHT22;9420;50.876;7.012;2023-07-24T06:52:54;20.08;76.73
18581;DHT22;9420;50.876;7.012;2023-07-24T06:55:21;20.09;76.95
18581;DHT22;9420;50.876;7.012;2023-07-24T06:57:47;20.23;76.32
18581;DHT22;9420;50.876;7.012;2023-07-24T07:00:14;20.47;75.54
18581;DHT22;9420;50.876;7.012;2023-07-24T07:02:41;20.46;75.59
18581;DHT22;9420;50.876;7.012;2023-07-24T07:05:07;20.46;75.52
18581;DHT22;9420;50.876;7.012;2023-07-24T07:07:34;20.52;75.25
18581;DHT22;9420;50.876;7.012;2023-07-24T07:10:02;20.69;74.08
18581;DHT22;9420;50.876;7.012;2023-07-24T07:12:30;20.69;73.78
18581;DHT22;9420;50.876;7.012;2023-07-24T07:14:57;20.77;74.73
18581;DHT22;9420;50.876;7.012;2023-07-24T07:17:23;20.85;74.54
18581;DHT22;9420;50.876;7.012;2023-07-24T07:20:01;20.83;73.69
18581;DHT22;9420;50.876;7.012;2023-07-24T07:22:39;20.70;73.14
18581;DHT22;9420;50.876;7.012;2023-07-24T07:25:08;20.64;74.78
18581;DHT22;9420;50.876;7.012;2023-07-24T07:27:34;20.63;75.26
18581;DHT22;9420;50.876;7.012;2023-07-24T07:30:01;20.66;74.27
18581;DHT22;9420;50.876;7.012;2023-07-24T07:32:30;20.66;74.74
18581;DHT22;9420;50.876;7.012;2023-07-24T07:34:57;20.67;74.08
18581;DHT22;9420;50.876;7.012;2023-07-24T07:37:25;20.66;74.47
18581;DHT22;9420;50.876;7.012;2023-07-24T07:39:52;20.74;73.86
18581;DHT22;9420;50.876;7.012;2023-07-24T07:42:21;20.76;73.39
18581;DHT22;9420;50.876;7.012;2023-07-24T07:44:50;20.88;73.14
18581;DHT22;9420;50.876;7.012;2023-07-24T07:47:17;21.00;72.43
18581;DHT22;9420;50.876;7.012;2023-07-24T07:49:44;21.15;72.49
18581;DHT22;9420;50.876;7.012;2023-07-24T07:52:14;21.29;70.89
18581;DHT22;9420;50.876;7.012;2023-07-24T07:54:46;21.39;71.47
18581;DHT22;9420;50.876;7.012;2023-07-24T07:57:13;21.50;70.63
18581;DHT22;9420;50.876;7.012;2023-07-24T07:59:43;21.39;70.33
18581;DHT22;9420;50.876;7.012;2023-07-24T08:02:12;21.55;71.28
18581;DHT22;9420;50.876;7.012;2023-07-24T08:04:39;21.72;70.24
18581;DHT22;9420;50.876;7.012;2023-07-24T08:07:05;21.86;68.86
18581;DHT22;9420;50.876;7.012;2023-07-24T08:09:32;21.87;69.36
18581;DHT22;9420;50.876;7.012;2023-07-24T08:11:59;21.60;69.13
18581;DHT22;9420;50.876;7.012;2023-07-24T08:14:26;21.65;68.81
18581;DHT22;9420;50.876;7.012;2023-07-24T08:17:04;21.60;68.63
18581;DHT22;9420;50.876;7.012;2023-07-24T08:19:32;21.52;68.73
18581;DHT22;9420;50.876;7.012;2023-07-24T08:21:59;21.29;69.94
18581;DHT22;9420;50.876;7.012;2023-07-24T08:24:27;21.48;69.03
18581;DHT22;9420;50.876;7.012;2023-07-24T08:26:54;21.50;68.56
18581;DHT22;9420;50.876;7.012;2023-07-24T08:29:24;21.65;68.30
18581;DHT22;9420;50.876;7.012;2023-07-24T08:31:59;21.72;67.75
18581;DHT22;9420;50.876;7.012;2023-07-24T08:34:29;22.03;67.71
18581;DHT22;9420;50.876;7.012;2023-07-24T08:36:55;22.68;67.33
18581;DHT22;9420;50.876;7.012;2023-07-24T08:39:30;22.99;64.30
18581;DHT22;9420;50.876;7.012;2023-07-24T08:41:57;23.02;65.17
18581;DHT22;9420;50.876;7.012;2023-07-24T08:44:31;23.12;65.39
18581;DHT22;9420;50.876;7.012;2023-07-24T08:46:57;23.04;63.30
18581;DHT22;9420;50.876;7.012;2023-07-24T08:49:27;22.71;65.40
18581;DHT22;9420;50.876;7.012;2023-07-24T08:51:59;22.52;64.65
18581;DHT22;9420;50.876;7.012;2023-07-24T08:54:30;22.43;65.10
18581;DHT22;9420;50.876;7.012;2023-07-24T08:57:00;22.14;65.50
18581;DHT22;9420;50.876;7.012;2023-07-24T08:59:40;22.43;65.56
18581;DHT22;9420;50.876;7.012;2023-07-24T09:02:07;22.24;65.03
18581;DHT22;9420;50.876;7.012;2023-07-24T09:04:35;22.14;65.27
18581;DHT22;9420;50.876;7.012;2023-07-24T09:07:02;22.22;65.01
18581;DHT22;9420;50.876;7.012;2023-07-24T09:09:29;22.28;64.04
18581;DHT22;9420;50.876;7.012;2023-07-24T09:11:57;22.10;64.95
18581;DHT22;9420;50.876;7.012;2023-07-24T09:14:26;22.16;64.94
18581;DHT22;9420;50.876;7.012;2023-07-24T09:17:03;22.38;64.58
18581;DHT22;9420;50.876;7.012;2023-07-24T09:19:30;22.56;63.66
18581;DHT22;9420;50.876;7.012;2023-07-24T09:22:08;22.43;64.59
18581;DHT22;9420;50.876;7.012;2023-07-24T09:24:36;22.58;64.19
18581;DHT22;9420;50.876;7.012;2023-07-24T09:27:10;22.31;64.49
18581;DHT22;9420;50.876;7.012;2023-07-24T09:29:39;22.18;65.17
18581;DHT22;9420;50.876;7.012;2023-07-24T09:32:19;22.11;64.75
18581;DHT22;9420;50.876;7.012;2023-07-24T09:34:46;21.97;65.46
18581;DHT22;9420;50.876;7.012;2023-07-24T09:37:24;22.17;63.83
18581;DHT22;9420;50.876;7.012;2023-07-24T09:39:54;22.13;64.55
18581;DHT22;9420;50.876;7.012;2023-07-24T09:42:36;22.31;64.24
18581;DHT22;9420;50.876;7.012;2023-07-24T09:45:16;22.31;64.92
18581;DHT22;9420;50.876;7.012;2023-07-24T09:47:43;22.40;63.47
18581;DHT22;9420;50.876;7.012;2023-07-24T09:50:17;22.43;64.17
18581;DHT22;9420;50.876;7.012;2023-07-24T09:52:48;22.61;63.07
18581;DHT22;9420;50.876;7.012;2023-07-24T09:55:21;22.45;64.29
18581;DHT22;9420;50.876;7.012;2023-07-24T09:57:51;22.43;63.54
18581;DHT22;9420;50.876;7.012;2023-07-24T10:00:22;22.72;62.33
18581;DHT22;9420;50.876;7.012;2023-07-24T10:02:57;23.14;61.80
18581;DHT22;9420;50.876;7.012;2023-07-24T10:05:24;23.10;62.13
18581;DHT22;9420;50.876;7.012;2023-07-24T10:07:55;23.61;60.82
18581;DHT22;9420;50.876;7.012;2023-07-24T10:10:22;23.91;60.08
18581;DHT22;9420;50.876;7.012;2023-07-24T10:12:49;23.89;59.96
18581;DHT22;9420;50.876;7.012;2023-07-24T10:15:16;23.55;60.44
18581;DHT22;9420;50.876;7.012;2023-07-24T10:17:43;23.31;60.73
18581;DHT22;9420;50.876;7.012;2023-07-24T10:20:11;23.53;60.72
18581;DHT22;9420;50.876;7.012;2023-07-24T10:22:41;24.39;59.45
18581;DHT22;9420;50.876;7.012;2023-07-24T10:25:09;24.80;57.88
18581;DHT22;9420;50.876;7.012;2023-07-24T10:27:39;25.83;57.54
18581;DHT22;9420;50.876;7.012;2023-07-24T10:30:06;26.31;53.67
18581;DHT22;9420;50.876;7.012;2023-07-24T10:32:33;26.62;53.55
18581;DHT22;9420;50.876;7.012;2023-07-24T10:35:06;26.30;54.15
18581;DHT22;9420;50.876;7.012;2023-07-24T10:37:34;26.51;54.06
18581;DHT22;9420;50.876;7.012;2023-07-24T10:40:02;26.40;55.23
18581;DHT22;9420;50.876;7.012;2023-07-24T10:42:31;25.65;57.30
18581;DHT22;9420;50.876;7.012;2023-07-24T10:45:04;24.66;56.78
18581;DHT22;9420;50.876;7.012;2023-07-24T10:47:32;24.29;60.78
18581;DHT22;9420;50.876;7.012;2023-07-24T10:49:58;24.18;60.77
18581;DHT22;9420;50.876;7.012;2023-07-24T10:52:27;23.89;61.86
18581;DHT22;9420;50.876;7.012;2023-07-24T10:54:54;23.74;60.28
18581;DHT22;9420;50.876;7.012;2023-07-24T10:57:25;23.64;61.80
18581;DHT22;9420;50.876;7.012;2023-07-24T10:59:53;23.85;61.79
18581;DHT22;9420;50.876;7.012;2023-07-24T11:02:19;24.39;58.55
18581;DHT22;9420;50.876;7.012;2023-07-24T11:04:46;25.65;56.59
18581;DHT22;9420;50.876;7.012;2023-07-24T11:07:13;25.59;57.62
18581;DHT22;9420;50.876;7.012;2023-07-24T11:09:40;25.59;55.51
18581;DHT22;9420;50.876;7.012;2023-07-24T11:12:12;26.00;51.63
18581;DHT22;9420;50.876;7.012;2023-07-24T11:14:49;26.31;53.39
18581;DHT22;9420;50.876;7.012;2023-07-24T11:17:18;25.82;53.42
18581;DHT22;9420;50.876;7.012;2023-07-24T11:19:44;25.96;53.93
18581;DHT22;9420;50.876;7.012;2023-07-24T11:22:11;26.08;55.07
18581;DHT22;9420;50.876;7.012;2023-07-24T11:24:42;25.31;53.21
18581;DHT22;9420;50.876;7.012;2023-07-24T11:27:12;24.83;56.13
18581;DHT22;9420;50.876;7.012;2023-07-24T11:29:38;24.41;56.78
18581;DHT22;9420;50.876;7.012;2023-07-24T11:32:06;24.05;57.38
18581;DHT22;9420;50.876;7.012;2023-07-24T11:34:34;24.19;57.96
18581;DHT22;9420;50.876;7.012;2023-07-24T11:37:01;24.59;57.44
18581;DHT22;9420;50.876;7.012;2023-07-24T11:39:28;24.47;58.26
18581;DHT22;9420;50.876;7.012;2023-07-24T11:41:54;24.57;58.62
18581;DHT22;9420;50.876;7.012;2023-07-24T11:44:24;25.56;56.16
18581;DHT22;9420;50.876;7.012;2023-07-24T11:46:51;26.38;53.84
18581;DHT22;9420;50.876;7.012;2023-07-24T11:49:22;26.92;53.84
18581;DHT22;9420;50.876;7.012;2023-07-24T11:51:50;27.20;52.36
18581;DHT22;9420;50.876;7.012;2023-07-24T11:54:17;26.38;52.82
18581;DHT22;9420;50.876;7.012;2023-07-24T11:56:44;24.52;57.99
18581;DHT22;9420;50.876;7.012;2023-07-24T11:59:11;23.81;60.88
18581;DHT22;9420;50.876;7.012;2023-07-24T12:01:37;22.83;63.88
18581;DHT22;9420;50.876;7.012;2023-07-24T12:04:04;21.86;68.19
18581;DHT22;9420;50.876;7.012;2023-07-24T12:06:31;22.18;68.29
18581;DHT22;9420;50.876;7.012;2023-07-24T12:09:02;21.72;69.54
18581;DHT22;9420;50.876;7.012;2023-07-24T12:11:30;21.63;70.13
18581;DHT22;9420;50.876;7.012;2023-07-24T12:17:22;21.67;71.36
18581;DHT22;9420;50.876;7.012;2023-07-24T12:19:52;23.10;66.94
18581;DHT22;9420;50.876;7.012;2023-07-24T12:22:18;22.69;68.91
18581;DHT22;9420;50.876;7.012;2023-07-24T12:24:47;21.65;71.30
18581;DHT22;9420;50.876;7.012;2023-07-24T12:27:13;21.22;74.07
18581;DHT22;9420;50.876;7.012;2023-07-24T12:29:43;20.94;80.74
18581;DHT22;9420;50.876;7.012;2023-07-24T12:32:10;20.18;84.58
18581;DHT22;9420;50.876;7.012;2023-07-24T12:34:37;20.02;87.12
18581;DHT22;9420;50.876;7.012;2023-07-24T12:37:04;20.14;85.22
18581;DHT22;9420;50.876;7.012;2023-07-24T12:39:32;20.01;88.58
18581;DHT22;9420;50.876;7.012;2023-07-24T12:42:15;20.05;88.84
18581;DHT22;9420;50.876;7.012;2023-07-24T12:44:44;20.11;89.06
18581;DHT22;9420;50.876;7.012;2023-07-24T12:47:15;20.16;88.76
18581;DHT22;9420;50.876;7.012;2023-07-24T12:49:41;20.14;90.49
18581;DHT22;9420;50.876;7.012;2023-07-24T12:52:08;20.05;86.36
18581;DHT22;9420;50.876;7.012;2023-07-24T12:54:35;19.89;86.02
18581;DHT22;9420;50.876;7.012;2023-07-24T12:57:02;19.85;88.15
18581;DHT22;9420;50.876;7.012;2023-07-24T12:59:30;19.70;89.62
18581;DHT22;9420;50.876;7.012;2023-07-24T13:01:57;19.64;88.25
18581;DHT22;9420;50.876;7.012;2023-07-24T13:04:24;19.81;88.55
18581;DHT22;9420;50.876;7.012;2023-07-24T13:06:50;20.63;89.43
18581;DHT22;9420;50.876;7.012;2023-07-24T13:09:17;23.61;82.36
18581;DHT22;9420;50.876;7.012;2023-07-24T13:11:44;23.54;82.67
18581;DHT22;9420;50.876;7.012;2023-07-24T13:14:12;23.91;78.90
18581;DHT22;9420;50.876;7.012;2023-07-24T13:16:41;25.12;78.82
18581;DHT22;9420;50.876;7.012;2023-07-24T13:19:07;23.68;79.05
18581;DHT22;9420;50.876;7.012;2023-07-24T13:21:45;22.28;80.17
18581;DHT22;9420;50.876;7.012;2023-07-24T13:24:14;21.80;81.65
18581;DHT22;9420;50.876;7.012;2023-07-24T13:26:44;23.74;77.22
18581;DHT22;9420;50.876;7.012;2023-07-24T13:29:10;25.38;72.96
18581;DHT22;9420;50.876;7.012;2023-07-24T13:31:37;23.04;78.82
18581;DHT22;9420;50.876;7.012;2023-07-24T13:34:07;22.24;82.81
18581;DHT22;9420;50.876;7.012;2023-07-24T13:36:34;22.08;80.04
18581;DHT22;9420;50.876;7.012;2023-07-24T13:39:01;21.58;83.45
18581;DHT22;9420;50.876;7.012;2023-07-24T13:41:36;21.28;83.05
18581;DHT22;9420;50.876;7.012;2023-07-24T13:44:09;21.24;84.02
18581;DHT22;9420;50.876;7.012;2023-07-24T13:46:39;21.12;83.91
18581;DHT22;9420;50.876;7.012;2023-07-24T13:49:14;21.20;84.21
18581;DHT22;9420;50.876;7.012;2023-07-24T13:51:43;21.32;83.50
18581;DHT22;9420;50.876;7.012;2023-07-24T13:54:16;21.34;83.70
18581;DHT22;9420;50.876;7.012;2023-07-24T13:56:42;20.94;88.42
18581;DHT22;9420;50.876;7.012;2023-07-24T13:59:09;20.77;86.27
18581;DHT22;9420;50.876;7.012;2023-07-24T14:01:35;20.50;87.98
18581;DHT22;9420;50.876;7.012;2023-07-24T14:04:02;20.19;86.63
18581;DHT22;9420;50.876;7.012;2023-07-24T14:06:30;19.95;88.57
18581;DHT22;9420;50.876;7.012;2023-07-24T14:08:57;19.60;88.59
18581;DHT22;9420;50.876;7.012;2023-07-24T14:11:23;19.37;89.34
18581;DHT22;9420;50.876;7.012;2023-07-24T14:13:52;19.17;90.81
18581;DHT22;9420;50.876;7.012;2023-07-24T14:16:18;19.05;90.95
18581;DHT22;9420;50.876;7.012;2023-07-24T14:18:45;19.12;89.84
18581;DHT22;9420;50.876;7.012;2023-07-24T14:21:11;19.17;89.20
18581;DHT22;9420;50.876;7.012;2023-07-24T14:23:39;19.34;89.85
18581;DHT22;9420;50.876;7.012;2023-07-24T14:26:06;19.26;90.08
18581;DHT22;9420;50.876;7.012;2023-07-24T14:28:32;19.24;91.18
18581;DHT22;9420;50.876;7.012;2023-07-24T14:30:59;19.36;89.36
18581;DHT22;9420;50.876;7.012;2023-07-24T14:33:25;19.65;88.52
18581;DHT22;9420;50.876;7.012;2023-07-24T14:35:52;20.64;85.27
18581;DHT22;9420;50.876;7.012;2023-07-24T14:38:20;20.52;85.22
18581;DHT22;9420;50.876;7.012;2023-07-24T14:40:48;20.28;85.19
18581;DHT22;9420;50.876;7.012;2023-07-24T14:43:14;20.40;86.83
18581;DHT22;9420;50.876;7.012;2023-07-24T14:45:41;20.04;84.17
18581;DHT22;9420;50.876;7.012;2023-07-24T14:48:08;20.04;84.59
18581;DHT22;9420;50.876;7.012;2023-07-24T14:50:35;19.94;86.41
18581;DHT22;9420;50.876;7.012;2023-07-24T14:53:01;20.12;84.30
18581;DHT22;9420;50.876;7.012;2023-07-24T14:55:40;20.40;86.36
18581;DHT22;9420;50.876;7.012;2023-07-24T14:58:10;20.21;86.66
18581;DHT22;9420;50.876;7.012;2023-07-24T15:00:36;20.26;87.14
18581;DHT22;9420;50.876;7.012;2023-07-24T15:03:03;20.42;86.40
18581;DHT22;9420;50.876;7.012;2023-07-24T15:05:30;20.53;82.90
18581;DHT22;9420;50.876;7.012;2023-07-24T15:07:56;20.37;82.04
18581;DHT22;9420;50.876;7.012;2023-07-24T15:10:23;20.28;82.90
18581;DHT22;9420;50.876;7.012;2023-07-24T15:12:49;20.76;78.02
18581;DHT22;9420;50.876;7.012;2023-07-24T15:15:18;21.10;77.69
18581;DHT22;9420;50.876;7.012;2023-07-24T15:17:44;21.70;77.11
18581;DHT22;9420;50.876;7.012;2023-07-24T15:20:11;21.37;75.45
18581;DHT22;9420;50.876;7.012;2023-07-24T15:22:39;22.58;73.89
18581;DHT22;9420;50.876;7.012;2023-07-24T15:25:06;22.01;74.41
18581;DHT22;9420;50.876;7.012;2023-07-24T15:27:33;21.55;75.49
18581;DHT22;9420;50.876;7.012;2023-07-24T15:29:59;21.01;76.99
18581;DHT22;9420;50.876;7.012;2023-07-24T15:32:27;23.24;71.48
18581;DHT22;9420;50.876;7.012;2023-07-24T15:34:54;24.60;67.18
18581;DHT22;9420;50.876;7.012;2023-07-24T15:37:20;23.03;71.73
18581;DHT22;9420;50.876;7.012;2023-07-24T15:39:47;22.79;74.11
18581;DHT22;9420;50.876;7.012;2023-07-24T15:42:14;22.59;72.32
18581;DHT22;9420;50.876;7.012;2023-07-24T15:44:43;23.19;70.54
18581;DHT22;9420;50.876;7.012;2023-07-24T15:47:09;24.43;66.71
18581;DHT22;9420;50.876;7.012;2023-07-24T15:49:37;23.91;68.34
18581;DHT22;9420;50.876;7.012;2023-07-24T15:52:05;22.61;68.41
18581;DHT22;9420;50.876;7.012;2023-07-24T15:54:32;22.56;69.80